Time;durP1;ratioP1;P1;durP2;ratioP2;P2;SDS_P1;SDS_P2;PMS_P1;PMS_P2;Temp;Humidity;BMP_temperature;BMP_pressure;BME280_temperature;BME280_humidity;BME280_pressure;Samples;Min_cycle;Max_cycle;Signal;HPM_P1;HPM_P2
2022/04/21 00:00:18;;;;;;;5.43;4.80;;;;;;;12.17;43.03;98223.63;6999981;28;20275;-79
2022/04/21 00:03:41;;;;;;;5.20;4.70;;;;;;;12.13;43.61;98230.53;6999947;28;20207;-79
2022/04/21 00:07:03;;;;;;;7.53;4.90;;;;;;;12.15;43.49;98234.66;6999611;28;20253;-79
2022/04/21 00:10:25;;;;;;;5.73;5.13;;;;;;;12.10;43.15;98225.59;6999767;28;20234;-78
2022/04/21 00:13:47;;;;;;;6.87;5.37;;;;;;;12.28;42.38;98241.75;6999935;28;20203;-79
2022/04/21 00:17:09;;;;;;;6.00;5.50;;;;;;;11.85;43.56;98239.22;6999584;28;20298;-79
2022/04/21 00:20:34;;;;;;;7.03;5.67;;;;;;;11.78;43.62;98237.63;6999838;28;20233;-78
2022/04/21 00:23:54;;;;;;;6.97;5.70;;;;;;;11.78;43.59;98219.56;7000823;28;20217;-79
2022/04/21 00:27:16;;;;;;;6.10;5.60;;;;;;;11.86;44.43;98230.06;7004361;28;20210;-79
2022/04/21 00:30:38;;;;;;;9.17;5.17;;;;;;;11.74;44.49;98234.56;7004461;28;20230;-78
2022/04/21 00:33:59;;;;;;;6.47;5.10;;;;;;;11.74;44.06;98202.16;7004341;28;20570;-78
2022/04/21 00:37:22;;;;;;;8.27;5.47;;;;;;;11.52;44.42;98225.22;7004365;28;20211;-79
2022/04/21 00:40:44;;;;;;;5.97;5.03;;;;;;;10.91;45.94;98216.31;7003979;28;20694;-79
2022/04/21 00:44:05;;;;;;;6.13;5.53;;;;;;;10.78;46.45;98224.53;7004372;28;20216;-79
2022/04/21 00:47:27;;;;;;;6.13;5.53;;;;;;;11.42;45.11;98227.66;7003699;28;20347;-78
2022/04/21 00:50:49;;;;;;;5.83;5.23;;;;;;;11.16;46.09;98214.41;7004112;28;20233;-79
2022/04/21 00:54:12;;;;;;;6.20;5.60;;;;;;;11.08;45.88;98201.22;7004267;28;20290;-79
2022/04/21 00:57:34;;;;;;;5.43;4.90;;;;;;;11.44;45.00;98206.66;7004012;28;20198;-78
2022/04/21 01:00:55;;;;;;;5.90;5.30;;;;;;;11.24;45.19;98189.03;7004781;28;20228;-78
2022/04/21 01:04:18;;;;;;;7.17;5.60;;;;;;;11.42;45.32;98207.91;7004378;28;20297;-79
2022/04/21 01:07:39;;;;;;;6.23;5.63;;;;;;;11.11;45.64;98208.84;7003925;28;20259;-78
2022/04/21 01:11:02;;;;;;;6.40;5.50;;;;;;;11.24;45.02;98211.44;7003822;28;20233;-79
2022/04/21 01:14:24;;;;;;;6.43;5.57;;;;;;;11.09;45.46;98213.66;7004075;28;20229;-78
2022/04/21 01:17:46;;;;;;;9.00;5.33;;;;;;;10.61;47.52;98225.28;7003098;28;20260;-79
2022/04/21 01:21:11;;;;;;;6.63;5.67;;;;;;;10.73;47.07;98210.06;7003762;28;20275;-79
2022/04/21 01:24:33;;;;;;;6.83;5.33;;;;;;;10.81;46.29;98223.28;7002867;28;20330;-78
2022/04/21 01:27:57;;;;;;;6.03;4.80;;;;;;;10.73;46.96;98213.59;7003298;28;20194;-78
2022/04/21 01:31:22;;;;;;;5.67;5.17;;;;;;;10.76;47.08;98218.56;7003449;28;20272;-79
2022/04/21 01:34:43;;;;;;;8.43;5.93;;;;;;;10.85;45.65;98200.19;7003616;28;20209;-79
2022/04/21 01:41:45;;;;;;;7.10;6.37;;;;;;;10.32;48.06;98215.97;7003267;28;20218;-77
2022/04/21 01:45:08;;;;;;;9.33;6.17;;;;;;;10.11;47.82;98207.41;7004073;28;20549;-79
2022/04/21 01:48:29;;;;;;;9.30;6.27;;;;;;;9.95;48.76;98226.72;7002181;28;20201;-78
2022/04/21 01:51:51;;;;;;;6.27;5.40;;;;;;;10.47;47.77;98216.50;7003025;28;20321;-78
2022/04/21 01:55:14;;;;;;;6.87;6.17;;;;;;;10.07;48.70;98219.66;7003222;28;20206;-78
2022/04/21 01:58:35;;;;;;;6.40;5.83;;;;;;;10.14;48.07;98215.88;7002795;28;20339;-79
2022/04/21 02:01:57;;;;;;;6.60;5.67;;;;;;;10.44;47.09;98222.31;7002332;28;20236;-78
2022/04/21 02:05:19;;;;;;;8.13;5.40;;;;;;;10.30;47.04;98217.22;7002848;28;20655;-78
2022/04/21 02:08:40;;;;;;;7.07;6.43;;;;;;;9.40;49.67;98216.63;7002156;28;20213;-78
2022/04/21 02:12:06;;;;;;;7.47;6.00;;;;;;;9.00;51.23;98225.81;7002568;28;20233;-78
2022/04/21 02:15:28;;;;;;;7.47;6.70;;;;;;;9.27;51.04;98212.09;7002529;28;20190;-78
2022/04/21 02:18:50;;;;;;;6.63;6.00;;;;;;;9.60;50.43;98202.06;7001468;28;20355;-78
2022/04/21 02:22:12;;;;;;;9.67;6.80;;;;;;;9.83;49.28;98205.06;7002291;28;20236;-78
2022/04/21 02:25:33;;;;;;;7.17;6.47;;;;;;;9.19;50.18;98211.50;7008666;28;20251;-78
2022/04/21 02:28:56;;;;;;;8.00;6.73;;;;;;;8.73;52.12;98205.38;7001926;28;20549;-79
2022/04/21 02:32:18;;;;;;;7.13;6.27;;;;;;;9.12;51.56;98183.81;7001934;28;20306;-78
2022/04/21 02:35:39;;;;;;;7.67;6.00;;;;;;;9.73;49.98;98190.38;7001633;28;20713;-79
2022/04/21 02:39:01;;;;;;;8.43;5.80;;;;;;;9.50;49.30;98176.66;7001659;28;20335;-79
2022/04/21 02:42:22;;;;;;;8.07;7.17;;;;;;;9.05;50.36;98204.50;7001593;28;20225;-79
2022/04/21 02:45:45;;;;;;;7.60;6.90;;;;;;;9.00;51.16;98204.31;7000583;28;20816;-78
2022/04/21 02:49:07;;;;;;;7.33;6.43;;;;;;;9.46;49.99;98197.75;7001580;28;20343;-78
2022/04/21 02:52:29;;;;;;;7.17;6.47;;;;;;;9.61;48.98;98194.78;7001260;28;20260;-78
2022/04/21 02:59:30;;;;;;;7.63;6.87;;;;;;;9.45;49.70;98197.97;7001197;28;20181;-79
2022/04/21 03:02:52;;;;;;;9.07;7.83;;;;;;;8.88;51.75;98183.63;7001458;28;20213;-79
2022/04/21 03:06:14;;;;;;;8.93;8.03;;;;;;;8.40;52.34;98180.38;7000539;28;20205;-79
2022/04/21 03:09:36;;;;;;;10.87;8.67;;;;;;;8.00;53.06;98116.91;7001081;28;20604;-78
2022/04/21 03:12:58;;;;;;;11.23;8.53;;;;;;;8.91;52.29;98167.91;7001019;28;20245;-79
2022/04/21 03:16:20;;;;;;;9.00;8.10;;;;;;;9.27;50.77;98179.81;7000567;28;20205;-79
2022/04/21 03:19:43;;;;;;;8.07;7.37;;;;;;;9.02;50.40;98167.28;7000794;28;20342;-78
2022/04/21 03:26:44;;;;;;;12.17;8.90;;;;;;;8.38;53.34;98176.25;6999971;28;20181;-79
2022/04/21 03:30:08;;;;;;;9.77;7.60;;;;;;;8.60;52.79;98164.25;7001429;28;20334;-78
2022/04/21 03:33:30;;;;;;;12.43;9.10;;;;;;;8.02;53.75;98132.81;7001301;28;20230;-79
2022/04/21 03:36:53;;;;;;;12.43;8.90;;;;;;;7.99;54.36;98141.28;7000670;28;20236;-79
2022/04/21 03:40:15;;;;;;;9.30;8.30;;;;;;;8.33;53.12;98152.72;7000938;28;20233;-78
2022/04/21 03:44:04;;;;;;;11.30;10.20;;;;;;;8.59;52.88;98157.22;7000817;28;20224;-78
2022/04/21 03:47:26;;;;;;;11.87;10.67;;;;;;;8.53;52.95;98171.47;7000823;28;20213;-78
2022/04/21 03:50:48;;;;;;;10.10;9.07;;;;;;;8.44;53.49;98168.16;7005773;28;20240;-79
2022/04/21 03:54:11;;;;;;;12.13;10.23;;;;;;;8.59;53.66;98178.72;7009008;28;20213;-79
2022/04/21 03:57:33;;;;;;;10.77;9.77;;;;;;;8.43;53.39;98153.09;7006335;28;20233;-78
2022/04/21 04:00:55;;;;;;;10.83;9.83;;;;;;;8.72;52.95;98174.16;7006240;28;20241;-78
2022/04/21 04:04:16;;;;;;;12.57;10.10;;;;;;;8.73;52.86;98150.81;7007075;28;20283;-78
2022/04/21 04:11:18;;;;;;;11.20;9.80;;;;;;;8.61;53.27;98147.09;7006646;28;20249;-79
2022/04/21 04:14:40;;;;;;;11.97;10.20;;;;;;;8.52;52.65;98108.03;7006742;28;20213;-78
2022/04/21 04:18:02;;;;;;;10.97;9.87;;;;;;;8.92;51.84;98172.28;7006506;28;20300;-78
2022/04/21 04:21:23;;;;;;;10.03;9.03;;;;;;;8.84;51.79;98166.28;7006153;28;20311;-78
2022/04/21 04:24:46;;;;;;;12.53;9.90;;;;;;;8.51;52.57;98179.75;7032352;28;20296;-78
2022/04/21 04:28:09;;;;;;;11.73;9.37;;;;;;;8.22;52.72;98121.09;7033668;28;20668;-78
2022/04/21 04:31:31;;;;;;;12.03;10.83;;;;;;;8.44;52.26;98129.75;7033148;28;20693;-79
2022/04/21 04:34:53;;;;;;;10.80;9.80;;;;;;;8.94;51.75;98186.31;7034222;28;20212;-79
2022/04/21 04:38:14;;;;;;;11.40;9.97;;;;;;;8.98;51.37;98157.16;7033691;28;20216;-78
2022/04/21 04:48:55;;;;;;;13.10;11.80;;;;;;;8.67;51.86;98159.69;7033722;28;20184;-78
2022/04/21 04:52:16;;;;;;;16.67;11.67;;;;;;;7.84;53.38;98165.59;7033089;28;20236;-79
2022/04/21 04:55:38;;;;;;;12.93;11.30;;;;;;;7.95;54.50;98164.22;7033566;28;20298;-79
2022/04/21 04:59:00;;;;;;;13.93;11.53;;;;;;;8.12;54.16;98171.66;7033509;28;20254;-79
2022/04/21 05:02:23;;;;;;;14.37;11.67;;;;;;;8.12;54.66;98168.13;7033125;28;20229;-79
2022/04/21 05:05:44;;;;;;;12.83;11.03;;;;;;;8.10;54.40;98173.72;7033234;28;20201;-78
2022/04/21 05:09:09;;;;;;;13.77;11.63;;;;;;;8.03;54.78;98167.53;7033409;28;20244;-79
2022/04/21 05:12:30;;;;;;;12.43;11.17;;;;;;;8.20;53.78;98166.09;7034431;28;20310;-79
2022/04/21 05:15:52;;;;;;;11.47;10.37;;;;;;;7.88;55.04;98153.44;7035222;28;20208;-79
2022/04/21 05:19:17;;;;;;;13.70;10.50;;;;;;;8.27;53.86;98141.94;7034952;28;20221;-77
2022/04/21 05:22:39;;;;;;;15.43;11.43;;;;;;;8.25;53.01;98150.19;7034194;28;20201;-78
2022/04/21 05:26:02;;;;;;;13.47;11.07;;;;;;;8.41;53.68;98157.84;7033505;28;20205;-79
2022/04/21 05:33:03;;;;;;;13.73;12.33;;;;;;;8.56;54.30;98166.53;7033067;28;20213;-79
2022/04/21 05:36:30;;;;;;;13.27;11.20;;;;;;;9.33;52.43;98149.38;7032972;28;20240;-80
2022/04/21 05:39:52;;;;;;;11.73;10.63;;;;;;;9.53;51.92;98166.28;7032382;28;20217;-79
2022/04/21 05:43:17;;;;;;;13.37;11.73;;;;;;;9.53;52.18;98152.00;7031678;28;20209;-78
2022/04/21 05:46:39;;;;;;;12.53;11.13;;;;;;;9.95;51.36;98146.78;7033339;28;20209;-78
2022/04/21 05:50:02;;;;;;;17.57;11.67;;;;;;;10.40;50.16;98152.91;7027896;28;20225;-86
2022/04/21 05:53:27;;;;;;;12.93;11.00;;;;;;;10.82;49.11;98152.97;7018472;28;20230;-82
2022/04/21 05:56:49;;;;;;;11.80;10.60;;;;;;;11.32;48.52;98150.94;7019324;28;20223;-83
2022/04/21 06:00:11;;;;;;;11.40;9.67;;;;;;;11.85;46.56;98124.94;7027699;28;20232;-84
2022/04/21 06:03:35;;;;;;;13.07;10.83;;;;;;;11.49;47.71;98108.78;7023329;28;20810;-79
2022/04/21 06:06:56;;;;;;;15.60;11.10;;;;;;;11.27;48.17;98146.22;7030116;28;20203;-82
2022/04/21 06:10:20;;;;;;;13.13;10.40;;;;;;;11.54;48.45;98136.75;7021029;28;20217;-82
2022/04/21 06:13:41;;;;;;;10.23;9.17;;;;;;;12.67;45.92;98132.97;7014397;28;20222;-81
2022/04/21 06:17:03;;;;;;;13.53;10.77;;;;;;;13.18;45.21;98130.41;7006195;28;20813;-81
2022/04/21 06:20:25;;;;;;;15.47;9.40;;;;;;;12.95;44.86;98087.09;7018003;28;20227;-82
2022/04/21 06:23:47;;;;;;;9.77;8.80;;;;;;;13.66;44.70;98111.91;7035009;28;20668;-81
2022/04/21 06:27:10;;;;;;;11.07;9.53;;;;;;;13.97;43.12;98103.28;7034414;28;20208;-81
2022/04/21 06:30:32;;;;;;;12.67;9.77;;;;;;;14.66;42.47;98095.56;7033598;28;20594;-78
2022/04/21 06:33:54;;;;;;;11.13;10.07;;;;;;;14.72;42.08;98112.75;7032933;28;20256;-79
2022/04/21 06:37:15;;;;;;;10.03;9.13;;;;;;;15.53;40.95;98116.38;7035206;28;20205;-80
2022/04/21 06:40:37;;;;;;;11.40;10.10;;;;;;;14.27;42.79;98087.63;7036291;28;20224;-79
2022/04/21 06:51:18;;;;;;;11.10;9.57;;;;;;;15.92;40.39;98109.75;7018371;28;20225;-80
2022/04/21 06:54:40;;;;;;;10.67;9.67;;;;;;;16.89;38.29;98113.94;7008784;28;20202;-80
2022/04/21 06:58:01;;;;;;;11.57;10.07;;;;;;;17.08;37.67;98119.75;7008574;28;20206;-80
2022/04/21 07:01:24;;;;;;;10.23;9.23;;;;;;;17.34;37.17;98118.84;7007690;28;20713;-79
2022/04/21 07:04:46;;;;;;;11.43;10.10;;;;;;;15.62;39.20;98114.84;7005489;28;20201;-79
2022/04/21 07:08:08;;;;;;;12.67;10.40;;;;;;;15.41;40.53;98106.69;7008249;28;20235;-78
2022/04/21 07:11:30;;;;;;;11.07;10.07;;;;;;;16.87;38.47;98118.78;7006563;28;20229;-80
2022/04/21 07:14:52;;;;;;;10.33;9.33;;;;;;;17.45;36.77;98110.47;7004478;28;20202;-78
2022/04/21 07:18:16;;;;;;;11.03;9.93;;;;;;;18.10;35.36;98115.34;7003937;28;20216;-77
2022/04/21 07:21:38;;;;;;;11.37;10.27;;;;;;;16.38;37.63;98121.91;7002760;28;20226;-77
2022/04/21 07:25:02;;;;;;;14.37;9.40;;;;;;;17.07;37.35;98126.28;7003360;28;20659;-78
2022/04/21 07:28:23;;;;;;;10.93;9.50;;;;;;;15.59;40.13;98122.69;7002909;28;20221;-77
2022/04/21 07:31:45;;;;;;;10.83;9.73;;;;;;;14.96;40.90;98116.91;7003478;28;20232;-77
2022/04/21 07:35:10;;;;;;;11.10;9.67;;;;;;;16.36;38.38;98127.63;7008948;28;20209;-78
2022/04/21 07:38:34;;;;;;;10.47;9.37;;;;;;;17.25;37.11;98120.41;7011771;28;20206;-78
2022/04/21 07:41:57;;;;;;;10.87;9.87;;;;;;;17.49;36.49;98124.38;7008414;28;20218;-78
2022/04/21 07:45:18;;;;;;;10.43;9.43;;;;;;;17.55;36.15;98118.69;7019396;28;20208;-77
2022/04/21 07:56:06;;;;;;;9.17;8.37;;;;;;;18.77;33.83;98100.41;7036225;28;20191;-78
2022/04/21 07:59:28;;;;;;;11.17;10.07;;;;;;;16.84;36.80;98108.44;7036219;28;20209;-77
2022/04/21 08:02:50;;;;;;;11.20;9.37;;;;;;;18.12;35.26;98083.13;7037322;28;20281;-78
2022/04/21 08:06:12;;;;;;;10.27;9.30;;;;;;;17.24;35.75;98116.88;7036810;28;20238;-79
2022/04/21 08:09:35;;;;;;;9.90;9.00;;;;;;;17.98;35.33;98104.66;7036934;28;20206;-79
2022/04/21 08:12:59;;;;;;;10.10;8.33;;;;;;;18.48;35.01;98095.75;7036260;28;20232;-77
2022/04/21 08:16:20;;;;;;;9.63;8.73;;;;;;;18.61;34.42;98055.09;7036171;28;20197;-78
2022/04/21 08:19:42;;;;;;;9.20;8.30;;;;;;;18.57;35.00;98083.22;7039142;28;20229;-78
2022/04/21 08:23:04;;;;;;;9.13;8.10;;;;;;;18.49;34.37;98081.84;7039650;28;20214;-78
2022/04/21 08:33:53;;;;;;;9.80;8.27;;;;;;;18.21;33.51;98071.41;7035802;28;20234;-78
2022/04/21 08:37:15;;;;;;;8.60;7.33;;;;;;;19.40;31.85;98061.47;7035264;28;20202;-78
2022/04/21 08:40:37;;;;;;;7.90;7.13;;;;;;;18.39;33.46;98065.44;7035728;28;20267;-78
2022/04/21 08:44:03;;;;;;;7.13;6.43;;;;;;;18.79;33.34;98061.88;7028567;28;20209;-78
2022/04/21 08:47:27;;;;;;;8.10;7.33;;;;;;;20.06;31.79;98061.97;7010115;28;20563;-78
2022/04/21 08:50:49;;;;;;;7.50;6.80;;;;;;;19.68;32.05;98052.59;7009556;28;20231;-79
2022/04/21 08:54:11;;;;;;;8.30;7.60;;;;;;;19.36;32.18;98063.16;7009390;28;20232;-80
2022/04/21 08:57:35;;;;;;;9.63;6.50;;;;;;;20.15;31.57;98033.75;7009303;28;20202;-80
2022/04/21 09:00:58;;;;;;;6.57;5.90;;;;;;;20.64;30.86;98059.06;7009544;28;20226;-80
2022/04/21 09:04:20;;;;;;;6.90;6.17;;;;;;;21.14;30.05;98056.69;7009858;28;20188;-80
2022/04/21 09:07:45;;;;;;;6.50;5.90;;;;;;;20.48;29.95;98057.59;7009559;28;20624;-80
2022/04/21 09:11:08;;;;;;;6.17;5.67;;;;;;;19.92;30.89;98061.78;7010264;28;20288;-80
2022/04/21 09:14:30;;;;;;;12.33;6.73;;;;;;;20.48;30.27;98038.41;7010182;28;20240;-80
2022/04/21 09:17:56;;;;;;;6.13;5.63;;;;;;;19.74;31.34;98047.94;7013909;28;20247;-80
2022/04/21 09:21:18;;;;;;;6.97;5.40;;;;;;;20.22;30.39;98033.44;7023179;28;20222;-80
2022/04/21 09:24:40;;;;;;;5.77;5.20;;;;;;;19.92;31.59;98020.72;7028763;28;20204;-80
2022/04/21 09:28:02;;;;;;;5.97;5.40;;;;;;;21.01;29.59;98020.13;7024241;28;20275;-81
2022/04/21 09:31:24;;;;;;;4.97;4.43;;;;;;;21.45;28.88;98032.47;7021345;28;20825;-80
2022/04/21 09:34:50;;;;;;;7.77;6.00;;;;;;;21.05;28.76;98024.72;7027183;28;20216;-79
2022/04/21 09:38:11;;;;;;;6.03;5.43;;;;;;;20.32;29.55;98027.84;7017612;28;20203;-79
2022/04/21 09:41:33;;;;;;;5.87;5.30;;;;;;;20.77;29.91;98030.19;7024078;28;20228;-80
2022/04/21 09:48:44;;;;;;;5.50;5.00;;;;;;;20.67;30.79;98019.34;7020437;28;20219;-79
2022/04/21 09:52:07;;;;;;;5.03;4.53;;;;;;;20.86;29.75;98020.25;7019544;28;20226;-79
2022/04/21 09:55:30;;;;;;;5.23;4.73;;;;;;;21.76;28.65;98006.28;7017392;28;20220;-80
2022/04/21 09:58:51;;;;;;;5.40;4.90;;;;;;;20.96;30.11;98001.81;7023816;28;20211;-79
2022/04/21 10:02:14;;;;;;;4.87;4.47;;;;;;;22.01;27.87;97986.72;7045512;28;20221;-79
2022/04/21 10:05:38;;;;;;;5.63;4.83;;;;;;;20.80;30.49;98004.97;7036344;28;20204;-80
2022/04/21 10:09:01;;;;;;;4.53;4.13;;;;;;;21.99;28.59;97986.19;7020738;28;20223;-79
2022/04/21 10:12:23;;;;;;;4.83;4.43;;;;;;;21.87;29.05;97983.09;7032146;28;20228;-80
2022/04/21 10:15:44;;;;;;;4.60;4.20;;;;;;;20.58;29.69;97982.72;7003854;28;20212;-80
2022/04/21 10:19:06;;;;;;;4.10;3.80;;;;;;;21.64;29.18;97965.56;7004959;28;20260;-80
2022/04/21 10:22:28;;;;;;;4.73;4.20;;;;;;;20.63;30.43;97978.00;7004438;28;20685;-80
2022/04/21 10:26:01;;;;;;;5.80;4.77;;;;;;;19.87;31.68;97973.44;7003718;28;20245;-80
2022/04/21 10:29:25;;;;;;;5.93;5.43;;;;;;;21.02;30.28;97970.50;7004587;28;20198;-79
2022/04/21 10:32:51;;;;;;;5.80;4.80;;;;;;;21.76;29.37;97965.13;7005529;28;20231;-80
2022/04/21 10:36:33;;;;;;;4.80;4.30;;;;;;;22.33;27.85;97959.28;7012004;28;20206;-80
2022/04/21 10:40:05;;;;;;;5.00;4.60;;;;;;;20.47;30.09;97960.13;7032152;28;20256;-80
2022/04/21 10:44:00;;;;;;;5.40;4.63;;;;;;;20.89;29.44;97866.25;7030700;28;20202;-80
2022/04/21 10:47:41;;;;;;;4.23;3.83;;;;;;;19.52;32.14;97949.06;7031869;28;20211;-80
2022/04/21 10:51:02;;;;;;;4.13;3.73;;;;;;;19.72;31.53;97937.97;7029442;28;20224;-80
2022/04/21 10:58:47;;;;;;;3.30;3.00;;;;;;;20.84;30.55;97924.63;7017846;28;20182;-80
2022/04/21 11:02:12;;;;;;;3.33;3.00;;;;;;;20.81;30.08;97913.44;7021014;28;20220;-80
2022/04/21 11:05:37;;;;;;;2.70;2.50;;;;;;;21.79;29.08;97896.78;7032699;28;20212;-79
2022/04/21 11:09:01;;;;;;;3.13;2.93;;;;;;;20.65;29.59;97896.38;7032100;28;20201;-79
2022/04/21 11:12:45;;;;;;;3.23;2.93;;;;;;;22.16;28.37;97899.44;7031575;28;20227;-80
2022/04/21 11:16:07;;;;;;;2.43;2.23;;;;;;;22.27;28.39;97900.06;7030355;28;20293;-80
2022/04/21 11:19:36;;;;;;;2.30;2.07;;;;;;;22.25;26.06;97905.06;7032286;28;20214;-80
2022/04/21 11:22:59;;;;;;;2.40;1.90;;;;;;;22.01;26.12;97885.16;7032524;28;20194;-80
2022/04/21 11:26:26;;;;;;;2.23;1.90;;;;;;;21.00;27.63;97889.66;7032163;28;20206;-79
2022/04/21 11:29:47;;;;;;;2.00;1.57;;;;;;;23.11;25.92;97880.28;7031922;28;20224;-80
2022/04/21 11:33:11;;;;;;;2.47;1.80;;;;;;;21.55;26.25;97884.22;7031783;28;20275;-81
2022/04/21 11:36:37;;;;;;;1.80;1.70;;;;;;;22.76;26.50;97872.78;7031341;28;20226;-80
2022/04/21 11:40:00;;;;;;;2.23;2.13;;;;;;;21.10;26.41;97832.00;7032380;28;20231;-79
2022/04/21 11:43:21;;;;;;;2.00;1.90;;;;;;;19.94;29.20;97864.50;7037704;28;20208;-80
2022/04/21 11:46:43;;;;;;;1.90;1.80;;;;;;;21.35;27.77;97881.75;7033335;28;20215;-80
2022/04/21 11:50:05;;;;;;;2.00;1.80;;;;;;;20.80;28.54;97881.69;7031808;28;20216;-80
2022/04/21 11:53:29;;;;;;;2.23;2.10;;;;;;;21.74;27.74;97888.63;7032347;28;20239;-80
2022/04/21 11:56:53;;;;;;;2.90;2.10;;;;;;;23.05;26.46;97874.09;7031315;28;20213;-80
2022/04/21 12:00:17;;;;;;;2.40;2.20;;;;;;;22.76;25.83;97859.84;7032064;28;20248;-80
2022/04/21 12:07:27;;;;;;;2.20;2.10;;;;;;;22.11;26.69;97860.25;7030886;28;20272;-80
2022/04/21 12:10:49;;;;;;;2.23;2.03;;;;;;;22.77;26.36;97855.19;7031429;28;20223;-80
2022/04/21 12:14:14;;;;;;;2.63;2.43;;;;;;;23.21;25.95;97858.09;7032181;28;20229;-80
2022/04/21 12:17:36;;;;;;;2.83;2.63;;;;;;;22.54;26.75;97851.50;7029628;28;20222;-80
2022/04/21 12:20:57;;;;;;;2.87;2.63;;;;;;;22.10;27.92;97843.00;7035535;28;20221;-80
2022/04/21 12:24:19;;;;;;;2.70;2.50;;;;;;;23.21;26.61;97847.09;7037068;28;20206;-80
2022/04/21 12:27:42;;;;;;;2.50;2.30;;;;;;;22.35;27.36;97838.94;7035700;28;20209;-81
2022/04/21 12:31:08;;;;;;;1.97;1.87;;;;;;;23.23;26.73;97807.16;7036114;28;20228;-80
2022/04/21 12:34:31;;;;;;;2.10;2.00;;;;;;;20.13;29.21;97843.53;7015896;28;20222;-80
2022/04/21 12:38:50;;;;;;;1.80;1.70;;;;;;;22.62;26.51;97789.53;7019408;28;20294;-79
2022/04/21 12:41:36;;;;;;;2.13;1.93;;;;;;;22.71;25.48;97832.47;7023703;28;20222;-79
2022/04/21 12:44:58;;;;;;;2.30;2.10;;;;;;;21.56;27.22;97836.47;7028425;28;20205;-79
2022/04/21 12:48:25;;;;;;;2.73;2.53;;;;;;;21.48;28.16;97829.72;7036151;28;20212;-79
2022/04/21 12:51:48;;;;;;;2.67;2.47;;;;;;;22.46;26.96;97829.41;7035744;28;20226;-80
2022/04/21 12:55:11;;;;;;;2.57;2.20;;;;;;;21.85;26.38;97816.00;7013985;28;20218;-79
2022/04/21 12:58:33;;;;;;;2.07;1.97;;;;;;;21.22;26.41;97832.34;7015828;28;20205;-80
2022/04/21 13:01:54;;;;;;;1.93;1.83;;;;;;;21.71;26.97;97817.88;7006182;28;20229;-80
2022/04/21 13:05:17;;;;;;;2.53;2.20;;;;;;;23.01;26.43;97817.28;7007237;28;20578;-80
2022/04/21 13:08:39;;;;;;;2.60;2.40;;;;;;;22.50;26.31;97817.53;7006421;28;20217;-80
2022/04/21 13:12:00;;;;;;;2.70;2.50;;;;;;;22.71;27.28;97813.25;7008247;28;20231;-84
2022/04/21 13:15:22;;;;;;;2.60;2.40;;;;;;;22.07;27.63;97794.16;7015172;28;20240;-81
2022/04/21 13:18:44;;;;;;;2.73;2.50;;;;;;;21.81;28.79;97808.66;7034792;28;20611;-81
2022/04/21 13:22:07;;;;;;;2.43;2.23;;;;;;;21.92;28.21;97788.97;7035889;28;20264;-85
2022/04/21 13:25:29;;;;;;;5.23;3.93;;;;;;;21.60;27.76;97802.66;7034657;28;20207;-81
2022/04/21 13:28:50;;;;;;;2.30;1.97;;;;;;;21.32;27.52;97800.13;7034143;28;20614;-81
2022/04/21 13:35:52;;;;;;;3.23;2.90;;;;;;;20.83;29.75;97805.19;7017701;28;20228;-80
2022/04/21 13:39:15;;;;;;;3.10;2.40;;;;;;;21.90;28.30;97788.44;7019021;28;20210;-79
2022/04/21 13:42:37;;;;;;;3.00;2.50;;;;;;;21.31;29.28;97769.13;7028434;28;20210;-81
2022/04/21 13:46:00;;;;;;;2.57;2.37;;;;;;;21.37;29.23;97762.44;7034588;28;20679;-81
2022/04/21 13:49:22;;;;;;;2.90;2.70;;;;;;;21.42;28.46;97803.50;7033533;28;20574;-81
2022/04/21 13:52:43;;;;;;;3.60;2.70;;;;;;;20.28;29.96;97792.19;7032712;28;20226;-82
2022/04/21 13:56:12;;;;;;;2.63;2.43;;;;;;;21.13;28.89;97769.97;7032105;28;20350;-84
2022/04/21 13:59:34;;;;;;;3.30;2.73;;;;;;;21.49;28.32;97790.22;7033263;28;20328;-83
2022/04/21 14:02:56;;;;;;;4.03;2.90;;;;;;;20.99;28.41;97792.13;7030970;28;20204;-83
2022/04/21 14:06:18;;;;;;;4.17;2.40;;;;;;;22.11;27.94;97784.22;7026272;28;20680;-84
2022/04/21 14:09:39;;;;;;;5.37;2.80;;;;;;;22.19;27.07;97775.25;7033568;28;20255;-83
2022/04/21 14:13:03;;;;;;;3.20;2.90;;;;;;;21.91;27.73;97779.09;7033981;28;20193;-82
2022/04/21 14:16:25;;;;;;;3.07;2.43;;;;;;;22.04;27.70;97789.28;7031831;28;20662;-80
2022/04/21 14:19:46;;;;;;;2.63;2.43;;;;;;;22.27;27.44;97758.09;7031390;28;20322;-82
2022/04/21 14:23:08;;;;;;;2.80;2.53;;;;;;;21.57;27.86;97784.06;7032696;28;20204;-82
2022/04/21 14:26:30;;;;;;;2.70;2.50;;;;;;;23.25;25.67;97788.41;7029542;28;20298;-83
2022/04/21 14:29:53;;;;;;;2.97;2.67;;;;;;;20.37;29.00;97798.66;7024405;28;20217;-81
2022/04/21 14:33:15;;;;;;;3.00;2.70;;;;;;;20.48;28.40;97791.97;7032825;28;20220;-81
2022/04/21 14:36:36;;;;;;;2.90;2.70;;;;;;;19.83;29.06;97791.81;7032233;28;20234;-81
2022/04/21 14:47:17;;;;;;;2.23;2.03;;;;;;;21.18;28.90;97766.34;7007046;28;20651;-83
2022/04/21 14:50:39;;;;;;;2.67;2.47;;;;;;;22.30;26.84;97764.91;7007400;28;20229;-82
2022/04/21 14:54:01;;;;;;;2.53;2.33;;;;;;;22.28;26.48;97737.75;7006478;28;20566;-83
2022/04/21 14:57:24;;;;;;;2.20;2.10;;;;;;;21.38;28.05;97768.75;7013453;28;20198;-82
2022/04/21 15:00:46;;;;;;;2.53;2.23;;;;;;;22.15;27.47;97760.53;7020314;28;20593;-81
2022/04/21 15:04:09;;;;;;;2.60;2.10;;;;;;;21.53;28.04;97777.53;7021780;28;20265;-81
2022/04/21 15:07:30;;;;;;;2.70;2.50;;;;;;;21.04;28.50;97773.66;7016441;28;20203;-82
2022/04/21 15:10:52;;;;;;;2.63;2.43;;;;;;;20.87;27.86;97775.28;7005846;28;20238;-81
2022/04/21 15:14:13;;;;;;;3.90;2.27;;;;;;;19.81;28.96;97753.00;7005870;28;20314;-81
2022/04/21 15:17:35;;;;;;;3.60;2.50;;;;;;;21.23;27.01;97769.81;7005150;28;20219;-81
2022/04/21 15:21:01;;;;;;;3.10;2.30;;;;;;;19.79;28.97;97774.34;7014562;28;20231;-81
2022/04/21 15:24:22;;;;;;;2.83;2.20;;;;;;;20.54;28.31;97779.00;7032970;28;20697;-81
2022/04/21 15:27:44;;;;;;;3.83;2.60;;;;;;;21.46;26.83;97771.63;7031472;28;20201;-83
2022/04/21 15:31:05;;;;;;;2.10;1.90;;;;;;;21.50;26.69;97778.16;7020349;28;20396;-84
2022/04/21 15:34:27;;;;;;;2.33;2.13;;;;;;;21.27;27.54;97775.50;7005448;28;20242;-82
2022/04/21 15:37:51;;;;;;;2.37;2.17;;;;;;;20.30;28.26;97762.63;7004005;28;20203;-81
2022/04/21 15:41:12;;;;;;;2.30;2.10;;;;;;;19.65;29.55;97784.34;7010702;28;20582;-81
2022/04/21 15:44:34;;;;;;;2.60;2.10;;;;;;;20.59;29.00;97777.03;7021098;28;20336;-81
2022/04/21 15:47:56;;;;;;;2.60;2.30;;;;;;;20.51;28.39;97774.13;7020239;28;20668;-82
2022/04/21 15:51:18;;;;;;;1.97;1.87;;;;;;;20.40;28.38;97751.50;7023426;28;20307;-81
2022/04/21 16:01:59;;;;;;;3.80;2.20;;;;;;;20.96;27.77;97760.66;7009603;28;20221;-82
2022/04/21 16:05:21;;;;;;;3.27;2.37;;;;;;;21.09;27.39;97765.38;7024338;28;20229;-81
2022/04/21 16:08:44;;;;;;;3.03;2.20;;;;;;;19.80;28.71;97770.53;7027541;28;20198;-81
2022/04/21 16:12:09;;;;;;;2.27;2.07;;;;;;;20.36;28.82;97758.69;7037665;28;20718;-81
2022/04/21 16:15:31;;;;;;;2.53;2.33;;;;;;;21.16;27.24;97770.50;7035107;28;20233;-82
2022/04/21 16:18:53;;;;;;;2.30;2.10;;;;;;;21.17;27.73;97771.00;7035843;28;20202;-83
2022/04/21 16:22:18;;;;;;;2.97;2.37;;;;;;;20.84;27.28;97768.47;7034878;28;20225;-82
2022/04/21 16:25:40;;;;;;;2.30;2.10;;;;;;;21.16;27.31;97760.31;7018032;28;20218;-82
2022/04/21 16:29:03;;;;;;;2.30;2.10;;;;;;;20.83;27.10;97735.88;7009662;28;20712;-82
2022/04/21 16:32:25;;;;;;;2.07;1.87;;;;;;;21.79;26.73;97745.03;7010248;28;20284;-82
2022/04/21 16:35:47;;;;;;;2.43;2.23;;;;;;;21.24;27.02;97745.97;7008969;28;20226;-82
2022/04/21 16:39:09;;;;;;;2.10;2.00;;;;;;;19.98;28.79;97762.38;7018125;28;20204;-82
2022/04/21 16:42:30;;;;;;;2.50;2.30;;;;;;;21.03;28.17;97763.81;7008327;28;20229;-81
2022/04/21 16:45:53;;;;;;;2.60;2.40;;;;;;;21.33;27.63;97757.06;7008953;28;20209;-82
2022/04/21 16:49:15;;;;;;;3.20;2.90;;;;;;;20.83;27.72;97775.84;7010127;28;20216;-82
2022/04/21 16:52:36;;;;;;;2.83;2.63;;;;;;;20.57;28.29;97778.44;7019665;28;20212;-81
2022/04/21 16:55:58;;;;;;;4.13;3.30;;;;;;;20.24;28.65;97765.69;7036420;28;20746;-81
2022/04/21 16:59:20;;;;;;;6.03;3.50;;;;;;;19.84;29.57;97768.84;7037506;28;20206;-81
2022/04/21 17:02:58;;;;;;;6.60;3.33;;;;;;;19.55;29.66;97766.13;7029834;28;20285;-82
2022/04/21 17:06:19;;;;;;;3.30;3.00;;;;;;;20.50;28.52;97756.88;7036805;28;20204;-82
2022/04/21 17:09:41;;;;;;;4.93;3.60;;;;;;;19.17;30.56;97777.06;7032888;28;20253;-82